Terminal Aerodrome Forecast
Issued by NWS

Home | Current Version | Previous Version | Text Only | Print | Product List | Glossary On
Versions: 1 2 3 4 5 6 7 8 9 10 11 12 13 14
217
FTUS46 KSGX 301138
TAFTRM
TAF
KTRM 301138Z 3012/0112 34015G25KT P6SM SKC
     FM302000 31015G25KT P6SM VCTS SCT080CB
     FM010400 32013KT P6SM SCT100=

USA.gov is the U.S. government's official web portal to all federal, state and local government web resources and services.